KGAD

Details ICAO KGAD (GAD)
Name NORTHEAST ALABAMA RGNL
Region United States
Timezone America/Chicago (UTC-5.0)
Plans Departing 20
Arriving 8
Stats Elevation 569 ft / 173 m (AMSL)
Location 33.973115° -86.088625°
Runways 2
Magnetic Variation 4.026° W
Sunrise 2018-05-27 10:37:30 UTC / 2018-05-27 05:37:30 Local
Sunset 2018-05-28 00:48:28 UTC / 2018-05-27 19:48:28 Local
Advertisement - Login to hide

Runways

ID Width Length Bearing (true) Bearing (mag) Surface Threshold Offset Overrun Length
06 150 ft / 46 m 6,797 ft / 2,072 m 60.63° 64.66° Asphalt 0 ft / 0 m 0 ft / 0 m
18 150 ft / 46 m 4,819 ft / 1,469 m 180.25° 184.28° Asphalt 0 ft / 0 m 0 ft / 0 m
24 150 ft / 46 m 6,797 ft / 2,072 m 240.64° 244.67° Asphalt 0 ft / 0 m 0 ft / 0 m
36 150 ft / 46 m 4,819 ft / 1,469 m 0.25° 4.28° Asphalt 0 ft / 0 m 0 ft / 0 m

Map

Weather


0- 5 10 15 20 25 30 35+ Temperature / ° C

Clouds and Precipitation
Forecast for 2018-05-27 18:00 UTC. Updated an hour ago

Ground ~20,000 ft ~40,000 ft Winds

METAR

KGAD 271756Z AUTO 08007KT 10SM SCT031 BKN065 BKN080 29/22 A2992 RMK AO2 SLP130 T02890222 10300 20211 58015

TAF

Not found

Frequencies

Recorded 127.82 MHz AWOS 3
Approach 120.05 MHz BIRMINGHAM APP/DEP
Unicom 122.80 MHz CTAF/UNICOM
Warning: Do not use this data for real-world aviation or navigation. No guarantee of current accuracy is given.